createdAt,value
2023-05-02T00:00:50.701Z,7.40
2023-05-02T00:03:38.756Z,7.36
2023-05-02T00:06:26.620Z,7.35
2023-05-02T00:09:16.450Z,7.30
2023-05-02T00:12:04.256Z,7.26
2023-05-02T00:14:52.203Z,7.24
2023-05-02T00:17:43.547Z,7.20
2023-05-02T00:20:31.361Z,7.16
2023-05-02T00:23:19.282Z,7.13
2023-05-02T00:26:11.747Z,7.10
2023-05-02T00:29:00.711Z,7.07
2023-05-02T00:31:48.849Z,7.05
2023-05-02T00:34:36.844Z,7.02
2023-05-02T00:37:29.058Z,6.99
2023-05-02T00:40:16.947Z,6.97
2023-05-02T00:43:06.512Z,6.94
2023-05-02T00:45:54.353Z,6.91
2023-05-02T00:48:42.177Z,6.90
2023-05-02T00:51:30.426Z,6.89
2023-05-02T00:54:18.321Z,6.87
2023-05-02T00:57:06.715Z,6.85
2023-05-02T00:59:56.365Z,6.81
2023-05-02T01:02:54.294Z,6.81
2023-05-02T01:05:50.308Z,6.76
2023-05-02T01:08:43.329Z,6.76
2023-05-02T01:11:38.808Z,6.72
2023-05-02T01:14:30.683Z,6.72
2023-05-02T01:17:24.104Z,6.67
2023-05-02T01:20:17.472Z,6.65
2023-05-02T01:23:11.489Z,6.61
2023-05-02T01:26:10.402Z,6.59
2023-05-02T01:29:01.883Z,6.56
2023-05-02T01:31:52.378Z,6.55
2023-05-02T01:34:44.200Z,6.53
2023-05-02T01:37:32.826Z,6.51
2023-05-02T01:40:22.872Z,6.47
2023-05-02T01:43:12.591Z,6.44
2023-05-02T01:46:04.262Z,6.43
2023-05-02T01:48:56.088Z,6.36
2023-05-02T01:51:48.273Z,6.43
2023-05-02T01:54:37.793Z,6.27
2023-05-02T01:57:26.734Z,6.25
2023-05-02T02:00:17.298Z,6.26
2023-05-02T02:03:10.545Z,6.25
2023-05-02T02:06:01.030Z,6.23
2023-05-02T02:08:48.735Z,6.19
2023-05-02T02:11:44.519Z,6.17
2023-05-02T02:14:37.829Z,6.19
2023-05-02T02:17:31.390Z,6.18
2023-05-02T02:20:21.648Z,6.16
2023-05-02T02:23:11.774Z,6.14
2023-05-02T02:25:59.790Z,6.14
2023-05-02T02:28:47.774Z,6.12
2023-05-02T02:31:36.483Z,6.11
2023-05-02T02:34:25.493Z,6.09
2023-05-02T02:37:19.029Z,6.07
2023-05-02T02:40:13.564Z,6.06
2023-05-02T02:43:09.335Z,6.03
2023-05-02T02:46:12.566Z,5.99
2023-05-02T02:49:17.449Z,6.00
2023-05-02T02:52:11.813Z,5.97
2023-05-02T02:55:10.521Z,5.94
2023-05-02T02:58:03.554Z,5.92
2023-05-02T03:00:53.148Z,5.90
2023-05-02T03:03:43.656Z,5.88
2023-05-02T03:06:32.498Z,5.86
2023-05-02T03:09:20.187Z,5.87
2023-05-02T03:12:09.550Z,5.87
2023-05-02T03:15:03.703Z,5.83
2023-05-02T03:17:51.838Z,5.80
2023-05-02T03:20:39.885Z,5.79
2023-05-02T03:23:27.952Z,5.76
2023-05-02T03:26:15.969Z,5.73
2023-05-02T03:29:05.443Z,5.71
2023-05-02T03:31:53.291Z,5.67
2023-05-02T03:34:41.789Z,5.65
2023-05-02T03:37:29.522Z,5.63
2023-05-02T03:40:21.695Z,5.59
2023-05-02T03:43:09.649Z,5.57
2023-05-02T03:45:59.642Z,5.56
2023-05-02T03:48:47.414Z,5.56
2023-05-02T03:51:35.640Z,5.56
2023-05-02T03:54:24.046Z,5.57
2023-05-02T03:57:12.447Z,5.58
2023-05-02T04:00:00.713Z,5.59
2023-05-02T04:02:50.021Z,5.76
2023-05-02T04:05:37.941Z,5.85
2023-05-02T04:08:26.204Z,5.76
2023-05-02T04:11:13.897Z,5.67
2023-05-02T04:14:02.051Z,5.61
2023-05-02T04:16:50.428Z,5.65
2023-05-02T04:19:40.003Z,5.76
2023-05-02T04:22:28.090Z,5.87
2023-05-02T04:25:16.285Z,5.95
2023-05-02T04:28:04.989Z,5.87
2023-05-02T04:30:53.617Z,5.94
2023-05-02T04:33:41.648Z,6.15
2023-05-02T04:36:30.933Z,6.22
2023-05-02T04:39:18.897Z,6.27
2023-05-02T04:42:06.969Z,6.33
2023-05-02T04:44:54.973Z,6.26
2023-05-02T04:47:42.925Z,6.35
2023-05-02T04:50:32.121Z,6.46
2023-05-02T04:53:22.832Z,6.53
2023-05-02T04:56:11.318Z,6.56
2023-05-02T04:58:59.139Z,6.60
2023-05-02T05:01:47.261Z,6.64
2023-05-02T05:04:35.249Z,6.67
2023-05-02T05:07:23.210Z,6.68
2023-05-02T05:10:13.011Z,6.76
2023-05-02T05:13:00.719Z,6.81
2023-05-02T05:15:49.539Z,6.77
2023-05-02T05:18:40.725Z,6.86
2023-05-02T05:21:28.792Z,6.97
2023-05-02T05:24:16.859Z,6.99
2023-05-02T05:27:06.420Z,7.02
2023-05-02T05:29:54.472Z,7.13
2023-05-02T05:32:42.592Z,7.20
2023-05-02T05:35:32.051Z,7.29
2023-05-02T05:38:19.988Z,7.34
2023-05-02T05:41:09.002Z,7.33
2023-05-02T05:43:58.918Z,7.43
2023-05-02T05:46:46.545Z,7.49
2023-05-02T05:49:38.443Z,7.55
2023-05-02T05:52:26.777Z,7.57
2023-05-02T05:55:14.982Z,7.63
2023-05-02T05:58:03.077Z,7.66
2023-05-02T06:00:52.517Z,7.71
2023-05-02T06:03:40.369Z,7.76
2023-05-02T06:06:28.526Z,7.83
2023-05-02T06:09:16.657Z,7.89
2023-05-02T06:12:04.839Z,7.95
2023-05-02T06:14:52.718Z,7.98
2023-05-02T06:17:42.173Z,8.07
2023-05-02T06:20:30.039Z,8.13
2023-05-02T06:23:17.971Z,8.17
2023-05-02T06:26:06.738Z,8.17
2023-05-02T06:28:55.678Z,8.28
2023-05-02T06:31:43.694Z,8.37
2023-05-02T06:34:35.208Z,8.53
2023-05-02T06:37:23.622Z,8.56
2023-05-02T06:40:13.517Z,8.59
2023-05-02T06:43:01.367Z,8.65
2023-05-02T06:45:49.370Z,8.69
2023-05-02T06:48:37.602Z,8.69
2023-05-02T06:51:27.726Z,8.78
2023-05-02T06:54:18.649Z,8.84
2023-05-02T06:57:06.485Z,8.88
2023-05-02T06:59:54.291Z,9.00
2023-05-02T07:02:42.311Z,9.07
2023-05-02T07:05:31.390Z,9.15
2023-05-02T07:08:22.484Z,9.21
2023-05-02T07:11:10.480Z,9.04
2023-05-02T07:13:58.127Z,9.21
2023-05-02T07:16:46.172Z,9.20
2023-05-02T07:19:34.319Z,9.23
2023-05-02T07:22:22.857Z,9.39
2023-05-02T07:25:12.539Z,9.36
2023-05-02T07:28:00.455Z,9.44
2023-05-02T07:30:48.414Z,9.55
2023-05-02T07:33:36.485Z,9.53
2023-05-02T07:36:24.452Z,9.61
2023-05-02T07:39:12.300Z,9.76
2023-05-02T07:42:03.338Z,9.79
2023-05-02T07:44:51.218Z,9.85
2023-05-02T07:47:39.289Z,9.92
2023-05-02T07:50:27.252Z,10.11
2023-05-02T07:53:15.121Z,10.17
2023-05-02T07:56:04.091Z,10.12
2023-05-02T07:58:53.399Z,10.31
2023-05-02T08:01:41.613Z,10.41
2023-05-02T08:04:29.596Z,10.53
2023-05-02T08:07:17.540Z,10.68
2023-05-02T08:10:06.145Z,10.80
2023-05-02T08:12:54.064Z,10.95
2023-05-02T08:15:43.348Z,10.91
2023-05-02T08:18:31.228Z,11.38
2023-05-02T08:21:19.551Z,11.43
2023-05-02T08:24:07.735Z,11.50
2023-05-02T08:26:55.844Z,11.68
2023-05-02T08:29:43.653Z,11.81
2023-05-02T08:32:34.296Z,12.03
2023-05-02T08:35:25.077Z,12.22
2023-05-02T08:38:12.920Z,12.37
2023-05-02T08:41:01.621Z,12.57
2023-05-02T08:43:49.784Z,12.79
2023-05-02T08:46:41.690Z,13.07
2023-05-02T08:49:32.524Z,13.59
2023-05-02T08:52:22.460Z,13.90
2023-05-02T08:55:10.804Z,14.15
2023-05-02T08:58:01.601Z,14.58
2023-05-02T09:00:52.158Z,15.09
2023-05-02T09:03:40.630Z,15.47
2023-05-02T09:06:30.220Z,15.90
2023-05-02T09:09:19.209Z,16.38
2023-05-02T09:12:07.533Z,16.77
2023-05-02T09:15:10.938Z,17.44
2023-05-02T09:17:59.038Z,17.72
2023-05-02T09:20:47.069Z,18.14
2023-05-02T09:23:38.121Z,18.52
2023-05-02T09:26:29.504Z,18.97
2023-05-02T09:29:22.030Z,19.55
2023-05-02T09:32:10.034Z,19.97
2023-05-02T09:35:08.343Z,20.09
2023-05-02T09:37:57.178Z,20.61
2023-05-02T09:40:56.012Z,20.96
2023-05-02T09:43:43.604Z,21.15
2023-05-02T09:46:41.889Z,21.60
2023-05-02T09:49:42.545Z,21.95
2023-05-02T09:52:30.525Z,22.42
2023-05-02T09:55:22.913Z,22.76
2023-05-02T09:58:22.745Z,23.15
2023-05-02T10:01:15.502Z,23.11
2023-05-02T10:04:05.433Z,23.45
2023-05-02T10:06:53.891Z,23.49
2023-05-02T10:09:45.515Z,23.84
2023-05-02T10:12:34.889Z,24.08
2023-05-02T10:15:26.171Z,24.15
2023-05-02T10:18:17.797Z,24.30
2023-05-02T10:21:10.068Z,24.48
2023-05-02T10:23:59.197Z,24.62
2023-05-02T10:26:48.467Z,24.70
2023-05-02T10:29:37.144Z,24.69
2023-05-02T10:32:29.070Z,24.58
2023-05-02T10:35:18.591Z,24.60
2023-05-02T10:38:08.443Z,24.56
2023-05-02T10:41:02.132Z,24.58
2023-05-02T10:43:51.358Z,24.74
2023-05-02T10:46:41.330Z,24.92
2023-05-02T10:49:30.697Z,25.18
2023-05-02T10:52:38.098Z,25.49
2023-05-02T10:55:26.201Z,25.67
2023-05-02T10:58:23.776Z,25.76
2023-05-02T11:01:36.577Z,25.70
2023-05-02T11:04:24.662Z,25.82
2023-05-02T11:07:23.456Z,25.97
2023-05-02T11:10:28.440Z,26.25
2023-05-02T11:13:16.460Z,26.58
2023-05-02T11:16:04.370Z,26.79
2023-05-02T11:19:01.950Z,26.92
2023-05-02T11:21:49.996Z,26.94
2023-05-02T11:24:44.497Z,27.11
2023-05-02T11:27:39.241Z,27.14
2023-05-02T11:30:45.045Z,27.08
2023-05-02T11:33:32.766Z,26.98
2023-05-02T11:36:30.787Z,26.66
2023-05-02T11:39:22.969Z,26.06
2023-05-02T11:42:11.833Z,25.62
2023-05-02T11:45:02.274Z,25.25
2023-05-02T11:47:51.965Z,25.06
2023-05-02T11:50:49.632Z,24.91
2023-05-02T11:53:42.915Z,24.80
2023-05-02T11:56:30.602Z,24.63
2023-05-02T11:59:19.969Z,24.46
2023-05-02T12:02:08.744Z,24.25
2023-05-02T12:04:56.746Z,24.00
2023-05-02T12:07:46.297Z,23.66
2023-05-02T12:10:38.590Z,23.33
2023-05-02T12:13:27.793Z,23.02
2023-05-02T12:16:17.715Z,22.81
2023-05-02T12:19:05.977Z,22.46
2023-05-02T12:21:54.176Z,22.22
2023-05-02T12:24:43.387Z,22.07
2023-05-02T12:27:33.310Z,21.79
2023-05-02T12:30:27.834Z,21.43
2023-05-02T12:33:17.735Z,20.79
2023-05-02T12:36:10.802Z,20.21
2023-05-02T12:39:00.386Z,19.70
2023-05-02T12:41:48.224Z,19.46
2023-05-02T12:44:41.481Z,19.30
2023-05-02T12:47:30.160Z,18.98
2023-05-02T12:50:19.647Z,18.77
2023-05-02T12:53:08.020Z,18.57
2023-05-02T12:56:04.754Z,18.19
2023-05-02T12:58:52.492Z,17.94
2023-05-02T13:01:40.596Z,17.74
2023-05-02T13:04:36.382Z,17.63
2023-05-02T13:07:25.995Z,17.47
2023-05-02T13:10:17.810Z,17.27
2023-05-02T13:13:05.711Z,17.21
2023-05-02T13:15:53.713Z,17.20
2023-05-02T13:18:41.849Z,17.07
2023-05-02T13:21:30.067Z,16.98
2023-05-02T13:24:19.371Z,16.90
2023-05-02T13:27:07.367Z,16.97
2023-05-02T13:29:55.499Z,17.12
2023-05-02T13:32:43.438Z,17.28
2023-05-02T13:35:33.343Z,17.50
2023-05-02T13:38:22.517Z,17.80
2023-05-02T13:41:11.485Z,18.05
2023-05-02T13:43:59.578Z,18.39
2023-05-02T13:46:47.964Z,18.71
2023-05-02T13:49:35.785Z,19.00
2023-05-02T13:52:23.822Z,19.27
2023-05-02T13:55:12.762Z,19.59
2023-05-02T13:58:02.589Z,19.91
2023-05-02T14:00:50.791Z,20.20
2023-05-02T14:03:38.867Z,20.48
2023-05-02T14:06:27.030Z,20.79
2023-05-02T14:09:15.833Z,21.14
2023-05-02T14:12:03.535Z,21.44
2023-05-02T14:14:52.992Z,21.74
2023-05-02T14:17:40.884Z,22.03
2023-05-02T14:20:28.871Z,22.25
2023-05-02T14:23:16.744Z,22.58
2023-05-02T14:26:04.809Z,22.82
2023-05-02T14:28:52.825Z,23.07
2023-05-02T14:31:42.109Z,23.34
2023-05-02T14:34:30.567Z,23.51
2023-05-02T14:37:18.564Z,23.74
2023-05-02T14:40:09.225Z,23.94
2023-05-02T14:42:57.152Z,24.25
2023-05-02T14:45:44.763Z,24.46
2023-05-02T14:48:34.147Z,24.60
2023-05-02T14:51:22.085Z,24.80
2023-05-02T14:54:09.941Z,24.95
2023-05-02T14:56:58.061Z,25.12
2023-05-02T14:59:49.090Z,25.35
2023-05-02T15:02:37.581Z,25.56
2023-05-02T15:05:27.176Z,25.81
2023-05-02T15:08:15.264Z,25.90
2023-05-02T15:11:03.311Z,25.97
2023-05-02T15:13:51.212Z,26.29
2023-05-02T15:16:39.793Z,26.49
2023-05-02T15:19:28.125Z,26.59
2023-05-02T15:22:18.294Z,26.70
2023-05-02T15:25:06.765Z,26.79
2023-05-02T15:27:54.572Z,26.97
2023-05-02T15:30:42.526Z,27.12
2023-05-02T15:33:30.671Z,27.33
2023-05-02T15:36:18.524Z,27.47
2023-05-02T15:39:08.602Z,27.63
2023-05-02T15:41:56.931Z,27.70
2023-05-02T15:44:44.952Z,27.73
2023-05-02T15:47:32.855Z,27.82
2023-05-02T15:50:21.522Z,27.87
2023-05-02T15:53:09.519Z,27.82
2023-05-02T15:55:58.927Z,27.85
2023-05-02T15:58:46.696Z,27.99
2023-05-02T16:01:35.175Z,28.00
2023-05-02T16:04:25.522Z,27.92
2023-05-02T16:07:13.565Z,27.90
2023-05-02T16:10:01.827Z,27.97
2023-05-02T16:12:51.361Z,27.94
2023-05-02T16:15:39.495Z,27.88
2023-05-02T16:18:28.858Z,27.76
2023-05-02T16:21:16.761Z,27.55
2023-05-02T16:24:04.983Z,27.42
2023-05-02T16:26:52.680Z,27.33
2023-05-02T16:29:41.926Z,27.28
2023-05-02T16:32:29.981Z,27.26
2023-05-02T16:35:19.826Z,27.19
2023-05-02T16:38:07.448Z,27.18
2023-05-02T16:40:55.383Z,27.18
2023-05-02T16:43:43.431Z,27.18
2023-05-02T16:46:33.560Z,27.17
2023-05-02T16:49:21.450Z,27.14
2023-05-02T16:52:09.435Z,26.52
2023-05-02T16:54:57.435Z,26.10
2023-05-02T16:57:45.626Z,25.86
2023-05-02T17:00:33.997Z,25.46
2023-05-02T17:03:23.604Z,25.08
2023-05-02T17:06:11.276Z,24.59
2023-05-02T17:08:59.013Z,23.92
2023-05-02T17:11:47.138Z,23.10
2023-05-02T17:14:35.644Z,22.63
2023-05-02T17:17:23.888Z,22.17
2023-05-02T17:20:13.588Z,21.82
2023-05-02T17:23:02.217Z,21.50
2023-05-02T17:25:50.865Z,21.30
2023-05-02T17:28:39.605Z,21.09
2023-05-02T17:31:27.463Z,20.91
2023-05-02T17:34:15.482Z,20.55
2023-05-02T17:37:05.297Z,20.23
2023-05-02T17:39:53.390Z,20.03
2023-05-02T17:42:43.380Z,19.92
2023-05-02T17:45:31.466Z,19.78
2023-05-02T17:48:19.680Z,19.66
2023-05-02T17:51:08.055Z,19.47
2023-05-02T17:53:57.385Z,19.32
2023-05-02T17:56:45.480Z,19.05
2023-05-02T17:59:33.500Z,18.84
2023-05-02T18:02:22.539Z,18.66
2023-05-02T18:05:11.109Z,18.52
2023-05-02T18:07:59.043Z,18.36
2023-05-02T18:10:48.565Z,18.22
2023-05-02T18:13:39.571Z,18.10
2023-05-02T18:16:29.417Z,17.94
2023-05-02T18:19:17.729Z,17.82
2023-05-02T18:22:05.662Z,17.70
2023-05-02T18:24:54.333Z,17.56
2023-05-02T18:27:43.659Z,17.46
2023-05-02T18:30:31.167Z,17.32
2023-05-02T18:33:19.512Z,17.17
2023-05-02T18:36:07.606Z,17.01
2023-05-02T18:38:55.817Z,16.88
2023-05-02T18:41:44.240Z,16.74
2023-05-02T18:44:33.600Z,16.59
2023-05-02T18:47:24.391Z,16.47
2023-05-02T18:50:12.347Z,16.34
2023-05-02T18:53:00.163Z,16.23
2023-05-02T18:55:48.279Z,16.18
2023-05-02T18:58:36.400Z,16.02
2023-05-02T19:01:26.580Z,15.89
2023-05-02T19:04:14.688Z,15.75
2023-05-02T19:07:02.739Z,15.65
2023-05-02T19:09:51.132Z,15.57
2023-05-02T19:12:39.564Z,15.44
2023-05-02T19:15:28.701Z,15.31
2023-05-02T19:18:18.071Z,15.19
2023-05-02T19:21:12.465Z,15.10
2023-05-02T19:24:00.352Z,14.96
2023-05-02T19:26:48.269Z,14.84
2023-05-02T19:29:36.203Z,14.70
2023-05-02T19:32:25.128Z,14.56
2023-05-02T19:35:15.631Z,14.45
2023-05-02T19:38:03.702Z,14.34
2023-05-02T19:40:51.928Z,14.21
2023-05-02T19:43:39.781Z,14.12
2023-05-02T19:46:27.836Z,14.01
2023-05-02T19:49:16.194Z,13.89
2023-05-02T19:52:07.503Z,13.79
2023-05-02T19:54:55.563Z,13.65
2023-05-02T19:57:44.529Z,13.54
2023-05-02T20:00:32.860Z,13.45
2023-05-02T20:03:22.390Z,13.36
2023-05-02T20:06:10.301Z,13.27
2023-05-02T20:08:59.562Z,13.21
2023-05-02T20:11:47.257Z,13.09
2023-05-02T20:14:35.346Z,13.02
2023-05-02T20:17:23.411Z,12.94
2023-05-02T20:20:12.469Z,12.85
2023-05-02T20:23:00.399Z,12.74
2023-05-02T20:25:49.892Z,12.66
2023-05-02T20:28:37.768Z,12.57
2023-05-02T20:31:26.128Z,12.49
2023-05-02T20:34:13.807Z,12.40
2023-05-02T20:37:02.192Z,12.31
2023-05-02T20:39:49.967Z,12.26
2023-05-02T20:42:41.371Z,12.18
2023-05-02T20:45:29.555Z,12.10
2023-05-02T20:48:18.837Z,12.02
2023-05-02T20:51:06.644Z,11.98
2023-05-02T20:53:54.699Z,11.94
2023-05-02T20:56:42.660Z,11.86
2023-05-02T20:59:34.969Z,11.78
2023-05-02T21:02:22.896Z,11.72
2023-05-02T21:05:11.184Z,11.66
2023-05-02T21:08:01.864Z,11.59
2023-05-02T21:10:49.812Z,11.53
2023-05-02T21:13:37.591Z,11.46
2023-05-02T21:16:27.002Z,11.40
2023-05-02T21:19:14.863Z,11.34
2023-05-02T21:22:02.595Z,11.26
2023-05-02T21:24:51.086Z,11.19
2023-05-02T21:27:39.224Z,11.13
2023-05-02T21:30:27.420Z,11.10
2023-05-02T21:33:17.696Z,11.05
2023-05-02T21:36:07.082Z,11.00
2023-05-02T21:38:55.222Z,10.94
2023-05-02T21:41:43.027Z,10.86
2023-05-02T21:44:30.982Z,10.82
2023-05-02T21:47:19.025Z,10.79
2023-05-02T21:50:09.315Z,10.73
2023-05-02T21:52:57.530Z,10.65
2023-05-02T21:55:45.308Z,10.59
2023-05-02T21:58:33.272Z,10.52
2023-05-02T22:01:21.242Z,10.47
2023-05-02T22:04:09.178Z,10.44
2023-05-02T22:06:58.808Z,10.43
2023-05-02T22:09:47.006Z,10.37
2023-05-02T22:12:34.999Z,10.35
2023-05-02T22:15:22.902Z,10.34
2023-05-02T22:18:11.105Z,10.32
2023-05-02T22:20:58.958Z,10.29
2023-05-02T22:23:48.411Z,10.23
2023-05-02T22:26:36.692Z,10.20
2023-05-02T22:29:28.043Z,10.17
2023-05-02T22:32:15.943Z,10.12
2023-05-02T22:35:04.495Z,10.08
2023-05-02T22:37:52.497Z,10.04
2023-05-02T22:40:42.076Z,10.01
2023-05-02T22:43:30.183Z,9.96
2023-05-02T22:46:18.124Z,9.91
2023-05-02T22:49:07.210Z,9.87
2023-05-02T22:51:57.937Z,9.81
2023-05-02T22:54:46.081Z,9.79
2023-05-02T22:57:35.158Z,9.75
2023-05-02T23:00:23.452Z,9.70
2023-05-02T23:03:11.928Z,9.66
2023-05-02T23:06:00.340Z,9.63
2023-05-02T23:08:48.501Z,9.58
2023-05-02T23:11:36.686Z,9.53
2023-05-02T23:14:26.187Z,9.52
2023-05-02T23:17:14.081Z,9.46
2023-05-02T23:20:02.732Z,9.42
2023-05-02T23:22:51.269Z,9.38
2023-05-02T23:25:39.904Z,9.28
2023-05-02T23:28:28.174Z,9.22
2023-05-02T23:31:17.202Z,9.16
2023-05-02T23:34:05.214Z,9.12
2023-05-02T23:36:53.651Z,9.05
2023-05-02T23:39:41.717Z,9.00
2023-05-02T23:42:32.021Z,8.93
2023-05-02T23:45:20.147Z,8.89
2023-05-02T23:48:09.850Z,8.82
2023-05-02T23:50:57.586Z,8.77
2023-05-02T23:53:45.514Z,8.69
2023-05-02T23:56:33.650Z,8.65
2023-05-02T23:59:22.007Z,8.61
